Time;durP1;ratioP1;P1;durP2;ratioP2;P2;SDS_P1;SDS_P2;PMS_P1;PMS_P2;Temp;Humidity;BMP_temperature;BMP_pressure;BME280_temperature;BME280_humidity;BME280_pressure;Samples;Min_cycle;Max_cycle;Signal;HPM_P1;HPM_P2
2022/07/04 00:02:46;;;;;;;8.57;3.78;;;14.80;99.90;;;;;;6297811;28;20060;-72
2022/07/04 00:05:48;;;;;;;8.98;3.50;;;14.70;99.90;;;;;;6296915;28;20075;-72
2022/07/04 00:08:50;;;;;;;8.00;3.40;;;14.60;99.90;;;;;;6297807;28;20060;-72
2022/07/04 00:11:52;;;;;;;8.63;3.60;;;14.60;99.90;;;;;;6285043;28;20059;-72
2022/07/04 00:14:54;;;;;;;6.47;3.10;;;14.50;99.90;;;;;;6282821;28;20504;-72
2022/07/04 00:17:57;;;;;;;5.05;3.15;;;14.50;99.90;;;;;;6296646;28;20060;-72
2022/07/04 00:20:59;;;;;;;6.13;3.58;;;14.50;99.90;;;;;;6297673;28;20503;-73
2022/07/04 00:24:02;;;;;;;8.13;3.33;;;14.50;99.90;;;;;;6297118;28;20059;-72
2022/07/04 00:27:04;;;;;;;6.50;3.65;;;14.40;99.90;;;;;;6293216;28;20497;-72
2022/07/04 00:30:07;;;;;;;7.88;3.45;;;14.40;99.90;;;;;;6272332;28;20057;-72
2022/07/04 00:33:14;;;;;;;6.85;3.85;;;14.40;99.90;;;;;;6294745;28;20075;-72
2022/07/04 00:36:16;;;;;;;6.95;3.50;;;14.30;99.90;;;;;;6297456;28;20040;-72
2022/07/04 00:39:18;;;;;;;5.38;3.55;;;14.30;99.90;;;;;;6298055;28;20048;-72
2022/07/04 00:42:19;;;;;;;5.82;4.18;;;14.20;99.90;;;;;;6295106;28;20044;-72
2022/07/04 00:45:21;;;;;;;6.28;3.70;;;14.20;99.90;;;;;;6295870;28;20052;-72
2022/07/04 00:48:25;;;;;;;5.70;4.10;;;14.20;99.90;;;;;;6294707;28;20059;-72
2022/07/04 00:51:28;;;;;;;8.20;3.78;;;14.30;99.90;;;;;;6298090;28;20045;-72
2022/07/04 00:54:32;;;;;;;8.87;4.13;;;14.30;99.90;;;;;;6297535;28;20525;-72
2022/07/04 00:57:34;;;;;;;8.93;4.70;;;14.20;99.90;;;;;;6295559;28;20063;-72
2022/07/04 01:00:36;;;;;;;8.77;4.55;;;14.10;99.90;;;;;;6296412;28;20049;-72
2022/07/04 01:03:39;;;;;;;7.63;4.28;;;14.10;99.90;;;;;;6296693;28;20421;-72
2022/07/04 01:06:41;;;;;;;7.55;4.05;;;14.10;99.90;;;;;;6296365;28;20390;-72
2022/07/04 01:09:44;;;;;;;5.70;4.00;;;14.10;99.90;;;;;;6296567;28;20382;-72
2022/07/04 01:12:46;;;;;;;8.60;4.70;;;14.00;99.90;;;;;;6293436;28;20049;-72
2022/07/04 01:15:48;;;;;;;5.22;4.25;;;14.00;99.90;;;;;;6296565;28;20055;-72
2022/07/04 01:18:52;;;;;;;6.50;4.10;;;14.00;99.90;;;;;;6294761;28;20123;-72
2022/07/04 01:21:55;;;;;;;5.03;3.88;;;14.00;99.90;;;;;;6297157;28;20080;-72
2022/07/04 01:24:57;;;;;;;6.97;3.88;;;14.00;99.90;;;;;;6295703;28;20052;-72
2022/07/04 01:27:59;;;;;;;5.72;4.30;;;14.10;99.90;;;;;;6295917;28;20044;-73
2022/07/04 01:31:01;;;;;;;8.27;4.18;;;14.10;99.90;;;;;;6297370;28;20044;-73
2022/07/04 01:34:03;;;;;;;7.63;3.72;;;14.20;99.90;;;;;;6295087;28;20056;-73
2022/07/04 01:37:07;;;;;;;7.47;3.80;;;14.20;99.90;;;;;;6295894;28;20115;-73
2022/07/04 01:40:12;;;;;;;6.75;3.95;;;14.20;99.90;;;;;;6297004;28;20048;-73
2022/07/04 01:43:14;;;;;;;7.10;3.72;;;14.30;99.90;;;;;;6296677;28;20056;-73
2022/07/04 01:46:15;;;;;;;3.78;2.33;;;14.50;99.90;;;;;;6294401;28;20059;-73
2022/07/04 01:49:17;;;;;;;8.75;4.00;;;14.60;99.90;;;;;;6295466;28;20056;-73
2022/07/04 01:52:21;;;;;;;5.95;3.47;;;14.80;99.90;;;;;;6295452;28;20052;-73
2022/07/04 01:55:23;;;;;;;5.82;3.42;;;14.80;99.90;;;;;;6296115;28;20412;-73
2022/07/04 01:58:25;;;;;;;4.95;3.15;;;14.60;99.90;;;;;;6295414;28;20060;-73
2022/07/04 02:01:32;;;;;;;7.05;3.85;;;14.40;99.90;;;;;;6295350;28;20048;-73
2022/07/04 02:04:34;;;;;;;7.35;4.57;;;14.20;99.90;;;;;;6295204;28;20084;-73
2022/07/04 02:07:37;;;;;;;8.10;4.60;;;14.10;99.90;;;;;;6292994;28;20137;-73
2022/07/04 02:10:39;;;;;;;5.88;4.32;;;14.00;99.90;;;;;;6294569;28;20086;-73
2022/07/04 02:13:40;;;;;;;5.95;4.07;;;13.90;99.90;;;;;;6294725;28;20041;-73
2022/07/04 02:16:42;;;;;;;7.10;3.90;;;13.80;99.90;;;;;;6295515;28;20055;-73
2022/07/04 02:19:44;;;;;;;9.88;4.20;;;13.70;99.90;;;;;;6295676;28;20051;-73
2022/07/04 02:22:47;;;;;;;7.85;4.13;;;13.70;99.90;;;;;;6296430;28;20052;-73
2022/07/04 02:25:49;;;;;;;6.80;4.38;;;13.70;99.90;;;;;;6294692;28;20049;-73
2022/07/04 02:28:52;;;;;;;6.40;4.68;;;13.60;99.90;;;;;;6294042;28;20052;-73
2022/07/04 02:31:54;;;;;;;10.13;5.18;;;13.50;99.90;;;;;;6298141;28;20055;-73
2022/07/04 02:34:56;;;;;;;10.43;5.20;;;13.50;99.90;;;;;;6301524;28;20425;-73
2022/07/04 02:37:59;;;;;;;9.52;4.88;;;13.40;99.90;;;;;;6300210;28;20044;-73
2022/07/04 02:41:01;;;;;;;11.02;5.50;;;13.40;99.90;;;;;;6300210;28;20496;-73
2022/07/04 02:44:03;;;;;;;11.15;5.93;;;13.40;99.90;;;;;;6300877;28;20047;-72
2022/07/04 02:47:06;;;;;;;14.88;7.28;;;13.30;99.90;;;;;;6299748;28;20527;-72
2022/07/04 02:50:08;;;;;;;14.32;7.63;;;13.30;99.90;;;;;;6300566;28;20048;-72
2022/07/04 02:53:12;;;;;;;11.37;7.20;;;13.20;99.90;;;;;;6299718;28;20055;-73
2022/07/04 02:56:13;;;;;;;;;;;13.30;99.90;;;;;;6275532;28;20079;-72
2022/07/04 02:59:15;;;;;;;13.98;6.45;;;13.20;99.90;;;;;;6290466;28;19920;-73
2022/07/04 03:02:17;;;;;;;13.68;6.68;;;13.20;99.90;;;;;;6299373;28;20506;-72
2022/07/04 03:05:19;;;;;;;9.95;6.43;;;13.20;99.90;;;;;;6299992;28;20071;-72
2022/07/04 03:08:23;;;;;;;12.95;5.43;;;13.10;99.90;;;;;;6299643;28;20041;-72
2022/07/04 03:11:24;;;;;;;11.77;6.70;;;13.10;99.90;;;;;;6299364;28;20064;-72
2022/07/04 03:14:26;;;;;;;9.30;6.10;;;13.00;99.90;;;;;;6298982;28;20052;-73
2022/07/04 03:17:30;;;;;;;8.43;6.45;;;12.90;99.90;;;;;;6299999;28;20056;-72
2022/07/04 03:20:31;;;;;;;8.85;6.25;;;12.90;99.90;;;;;;6299961;28;20174;-72
2022/07/04 03:23:35;;;;;;;12.75;6.82;;;12.80;99.90;;;;;;6298781;28;20504;-72
2022/07/04 03:26:37;;;;;;;9.63;6.68;;;12.80;99.90;;;;;;6273759;28;20048;-72
2022/07/04 03:29:39;;;;;;;10.35;6.38;;;12.80;99.90;;;;;;6283380;28;20190;-72
2022/07/04 03:32:41;;;;;;;9.52;7.60;;;12.80;99.90;;;;;;6299955;28;20424;-72
2022/07/04 03:35:43;;;;;;;12.25;7.45;;;12.70;99.90;;;;;;6297760;28;20130;-72
2022/07/04 03:38:47;;;;;;;9.68;7.10;;;12.80;99.90;;;;;;6290294;28;20060;-72
2022/07/04 03:41:48;;;;;;;;;;;12.80;99.90;;;;;;6299540;28;20055;-72
2022/07/04 03:44:50;;;;;;;11.10;6.90;;;12.80;99.90;;;;;;6295612;28;19924;-73
2022/07/04 03:47:52;;;;;;;10.52;6.82;;;12.70;99.90;;;;;;6298183;28;20049;-71
2022/07/04 03:50:54;;;;;;;12.75;8.98;;;12.80;99.90;;;;;;6297074;28;20052;-71
2022/07/04 03:53:58;;;;;;;10.10;9.10;;;12.80;99.90;;;;;;6299425;28;20052;-70
2022/07/04 03:56:59;;;;;;;11.00;9.85;;;12.80;99.90;;;;;;6298802;28;20045;-70
2022/07/04 04:00:01;;;;;;;15.57;12.63;;;12.80;99.90;;;;;;6298120;28;20516;-70
2022/07/04 04:05:25;;;;;;;12.23;10.98;;;12.80;99.90;;;;;;6284578;28;20045;-71
2022/07/04 04:06:24;;;;;;;15.77;11.80;;;12.90;99.90;;;;;;6274865;28;20053;-70
2022/07/04 04:09:28;;;;;;;17.73;10.95;;;13.00;99.90;;;;;;6286980;28;20431;-72
2022/07/04 04:12:30;;;;;;;10.93;8.95;;;13.10;99.90;;;;;;6297905;28;20405;-71
2022/07/04 04:15:32;;;;;;;16.00;10.38;;;13.10;99.90;;;;;;6299111;28;20072;-71
2022/07/04 04:18:34;;;;;;;15.70;10.35;;;13.10;99.90;;;;;;6298655;28;20511;-71
2022/07/04 04:21:35;;;;;;;15.85;9.85;;;13.10;99.90;;;;;;6296411;28;20067;-71
2022/07/04 04:24:39;;;;;;;15.95;9.40;;;13.20;99.90;;;;;;6298630;28;20052;-71
2022/07/04 04:27:41;;;;;;;11.65;9.40;;;13.20;99.90;;;;;;6298646;28;20133;-71
2022/07/04 04:30:43;;;;;;;9.20;8.15;;;13.20;99.90;;;;;;6295977;28;20045;-71
2022/07/04 04:33:45;;;;;;;11.90;9.15;;;13.20;99.90;;;;;;6297001;28;20048;-71
2022/07/04 04:36:47;;;;;;;12.80;10.40;;;13.30;99.90;;;;;;6297801;28;20045;-71
2022/07/04 04:39:50;;;;;;;10.73;9.18;;;13.40;99.90;;;;;;6295681;28;20124;-71
2022/07/04 04:42:52;;;;;;;11.40;10.25;;;13.50;99.90;;;;;;6297129;28;20485;-71
2022/07/04 04:45:54;;;;;;;14.00;10.82;;;13.50;99.90;;;;;;6295423;28;20044;-71
2022/07/04 04:48:56;;;;;;;10.18;8.13;;;13.70;99.90;;;;;;6297842;28;20056;-71
2022/07/04 04:51:58;;;;;;;14.35;9.07;;;13.70;99.90;;;;;;6295710;28;20052;-71
2022/07/04 04:55:01;;;;;;;10.13;8.90;;;13.80;99.90;;;;;;6296808;28;20053;-71
2022/07/04 04:58:03;;;;;;;11.10;9.27;;;13.90;99.90;;;;;;6296632;28;20048;-71
2022/07/04 05:01:05;;;;;;;14.68;9.05;;;14.20;99.90;;;;;;6296815;28;20055;-71
2022/07/04 05:04:07;;;;;;;10.68;7.25;;;14.40;99.90;;;;;;6297361;28;20421;-71
2022/07/04 05:07:09;;;;;;;5.97;4.38;;;14.50;99.90;;;;;;6297997;28;20044;-71
2022/07/04 05:10:12;;;;;;;3.67;1.77;;;14.60;99.90;;;;;;6295644;28;20055;-71
2022/07/04 05:13:14;;;;;;;6.93;4.85;;;14.90;99.90;;;;;;6297365;28;20067;-71
2022/07/04 05:16:16;;;;;;;11.40;7.50;;;15.30;99.90;;;;;;6296278;28;20052;-71
2022/07/04 05:19:18;;;;;;;5.72;2.88;;;15.90;99.90;;;;;;6284572;28;20049;-71
2022/07/04 05:22:20;;;;;;;8.57;5.82;;;16.30;99.90;;;;;;6307045;28;20056;-71
2022/07/04 05:25:23;;;;;;;3.83;1.85;;;16.50;99.90;;;;;;6296780;28;20424;-71
2022/07/04 05:28:25;;;;;;;10.48;6.75;;;16.40;99.90;;;;;;6295808;28;20058;-71
2022/07/04 05:31:27;;;;;;;7.30;3.05;;;16.30;99.90;;;;;;6295175;28;20501;-71
2022/07/04 05:34:29;;;;;;;8.60;5.40;;;16.30;99.90;;;;;;6295917;28;20045;-71
2022/07/04 05:37:31;;;;;;;10.05;7.20;;;16.40;99.90;;;;;;6295063;28;20047;-71
2022/07/04 05:40:34;;;;;;;5.43;3.50;;;16.20;99.90;;;;;;6272476;28;20041;-71
2022/07/04 05:43:36;;;;;;;9.35;5.78;;;16.20;99.90;;;;;;6291494;28;20052;-71
2022/07/04 05:46:38;;;;;;;4.50;2.97;;;16.40;99.90;;;;;;6295273;28;20052;-71
2022/07/04 05:49:40;;;;;;;3.97;2.38;;;16.70;99.90;;;;;;6293993;28;20059;-71
2022/07/04 05:52:42;;;;;;;7.07;3.47;;;17.00;99.90;;;;;;6292290;28;20048;-71
2022/07/04 05:55:45;;;;;;;8.95;6.47;;;17.10;99.90;;;;;;6296479;28;20056;-71
2022/07/04 05:58:47;;;;;;;8.63;4.80;;;17.10;99.90;;;;;;6294307;28;20037;-70
2022/07/04 06:01:49;;;;;;;13.27;6.35;;;17.10;99.90;;;;;;6296295;28;20044;-74
2022/07/04 06:04:51;;;;;;;101.65;22.70;;;17.20;99.90;;;;;;6295358;28;20048;-70
2022/07/04 06:07:53;;;;;;;12.27;6.78;;;17.40;99.90;;;;;;6294382;28;20044;-73
2022/07/04 06:10:57;;;;;;;9.57;6.57;;;17.50;99.90;;;;;;6295583;28;20505;-70
2022/07/04 06:13:59;;;;;;;11.43;7.00;;;17.40;99.90;;;;;;6295481;28;20045;-70
2022/07/04 06:17:01;;;;;;;9.30;6.55;;;17.30;99.90;;;;;;6294550;28;20075;-70
2022/07/04 06:20:03;;;;;;;9.75;6.03;;;17.40;99.90;;;;;;6292384;28;20048;-70
2022/07/04 06:23:05;;;;;;;12.60;7.00;;;17.50;99.90;;;;;;6294365;28;20048;-70
2022/07/04 06:26:09;;;;;;;4.43;1.63;;;17.60;99.90;;;;;;6293276;28;20052;-70
2022/07/04 06:29:10;;;;;;;;;;;17.80;99.90;;;;;;6296744;28;20045;-70
2022/07/04 06:32:12;;;;;;;8.50;4.30;;;18.10;99.90;;;;;;6295161;28;19920;-71
2022/07/04 06:38:34;;;;;;;9.02;5.28;;;18.30;99.90;;;;;;6295481;28;20048;-70
2022/07/04 06:41:38;;;;;;;8.82;5.18;;;18.50;99.90;;;;;;6295865;28;20048;-70
2022/07/04 06:44:40;;;;;;;7.93;6.45;;;18.40;99.90;;;;;;6296254;28;20125;-70
2022/07/04 06:47:41;;;;;;;5.47;2.65;;;18.40;99.90;;;;;;6294650;28;20056;-70
2022/07/04 06:50:43;;;;;;;9.93;4.18;;;18.50;99.90;;;;;;6293985;28;20052;-70
2022/07/04 06:53:45;;;;;;;6.57;4.55;;;18.50;99.90;;;;;;6294845;28;20052;-70
2022/07/04 06:56:49;;;;;;;7.57;5.28;;;18.60;99.90;;;;;;6293524;28;20504;-70
2022/07/04 06:59:51;;;;;;;10.00;5.10;;;18.80;99.90;;;;;;6295553;28;20465;-70
2022/07/04 07:02:52;;;;;;;6.78;3.58;;;19.20;99.90;;;;;;6293706;28;20445;-69
2022/07/04 07:05:56;;;;;;;9.35;3.92;;;19.30;99.90;;;;;;6293529;28;20047;-70
2022/07/04 07:08:58;;;;;;;5.97;2.60;;;19.50;99.90;;;;;;6295270;28;20060;-70
2022/07/04 07:12:01;;;;;;;4.43;2.53;;;19.80;99.90;;;;;;6295183;28;20057;-70
2022/07/04 07:15:04;;;;;;;9.43;3.50;;;20.20;99.90;;;;;;6294254;28;20059;-70
2022/07/04 07:18:07;;;;;;;4.25;1.77;;;20.80;99.90;;;;;;6294865;28;20060;-70
2022/07/04 07:21:09;;;;;;;5.20;2.42;;;21.20;99.90;;;;;;6299915;28;20051;-70
2022/07/04 07:24:11;;;;;;;7.03;2.40;;;21.50;99.90;;;;;;6298530;28;20044;-70
2022/07/04 07:27:14;;;;;;;6.90;2.78;;;21.60;99.90;;;;;;6295048;28;20044;-70
2022/07/04 07:30:16;;;;;;;3.47;1.60;;;21.80;99.90;;;;;;6294524;28;20047;-70
2022/07/04 07:33:18;;;;;;;5.35;2.35;;;22.00;99.90;;;;;;6298867;28;20052;-70
2022/07/04 07:36:20;;;;;;;5.30;2.10;;;22.20;99.90;;;;;;6297987;28;20045;-70
2022/07/04 07:39:22;;;;;;;4.70;2.03;;;22.40;99.90;;;;;;6298268;28;20059;-70
2022/07/04 07:42:25;;;;;;;5.30;2.03;;;22.60;99.90;;;;;;6299628;28;20072;-70
2022/07/04 07:45:27;;;;;;;5.07;1.40;;;22.70;99.90;;;;;;6299381;28;20481;-70
2022/07/04 07:48:29;;;;;;;5.38;1.95;;;22.70;99.90;;;;;;6297776;28;20040;-70
2022/07/04 07:51:31;;;;;;;4.75;1.88;;;22.80;99.90;;;;;;6297650;28;20052;-69
2022/07/04 07:54:33;;;;;;;5.25;1.73;;;22.80;99.90;;;;;;6296659;28;20049;-70
2022/07/04 07:57:37;;;;;;;4.40;1.48;;;22.80;99.90;;;;;;6298276;28;20059;-70
2022/07/04 08:00:38;;;;;;;8.13;2.03;;;22.60;99.90;;;;;;6299072;28;20052;-70
2022/07/04 08:07:00;;;;;;;7.13;2.03;;;22.50;99.90;;;;;;6297188;28;20087;-70
2022/07/04 08:10:02;;;;;;;8.18;2.50;;;22.30;99.90;;;;;;6298395;28;20060;-70
2022/07/04 08:13:05;;;;;;;7.40;2.20;;;22.00;99.90;;;;;;6299148;28;20044;-70
2022/07/04 08:16:08;;;;;;;;;;;21.50;99.90;;;;;;6296110;28;20040;-70
2022/07/04 08:19:10;;;;;;;7.05;2.00;;;21.60;99.90;;;;;;6298022;28;19920;-70
2022/07/04 08:22:11;;;;;;;3.08;1.10;;;21.50;99.90;;;;;;6298650;28;20044;-70
2022/07/04 08:25:14;;;;;;;6.80;1.50;;;21.20;99.90;;;;;;6295613;28;20052;-70
2022/07/04 08:28:18;;;;;;;4.60;1.00;;;21.30;99.90;;;;;;6297341;28;20141;-70
2022/07/04 08:31:20;;;;;;;9.23;2.42;;;21.40;99.90;;;;;;6297488;28;20052;-70
2022/07/04 08:34:22;;;;;;;8.20;2.03;;;21.40;99.90;;;;;;6298274;28;20385;-71
2022/07/04 08:37:24;;;;;;;3.28;1.20;;;21.50;99.90;;;;;;6295100;28;20055;-70
2022/07/04 08:40:28;;;;;;;7.18;2.20;;;21.80;99.90;;;;;;6298356;28;20045;-70
2022/07/04 08:43:33;;;;;;;;;;;22.00;99.90;;;;;;6298419;28;20048;-70
2022/07/04 08:46:38;;;;;;;6.85;1.73;;;22.00;99.90;;;;;;6296016;28;19920;-70
2022/07/04 08:49:44;;;;;;;6.05;1.60;;;22.00;99.90;;;;;;6297628;28;20390;-70
2022/07/04 08:52:56;;;;;;;7.00;1.95;;;21.80;99.90;;;;;;6294695;28;20390;-70
2022/07/04 08:59:20;;;;;;;7.68;1.92;;;21.30;99.90;;;;;;6297764;28;20127;-70
2022/07/04 09:02:24;;;;;;;6.70;1.70;;;21.20;99.90;;;;;;6295065;28;20045;-70
2022/07/04 09:05:26;;;;;;;6.03;1.85;;;21.20;99.90;;;;;;6296594;28;20080;-70
2022/07/04 09:08:28;;;;;;;3.97;1.65;;;21.10;99.90;;;;;;6296805;28;20049;-70
2022/07/04 09:11:30;;;;;;;7.68;1.65;;;21.00;99.90;;;;;;6294733;28;20044;-70
2022/07/04 09:14:34;;;;;;;4.50;1.33;;;21.00;99.90;;;;;;6296323;28;20052;-70
2022/07/04 09:17:36;;;;;;;3.30;0.88;;;20.90;99.90;;;;;;6296800;28;20520;-70
2022/07/04 09:20:38;;;;;;;3.67;1.02;;;21.00;99.90;;;;;;6295136;28;20134;-70
2022/07/04 09:23:41;;;;;;;4.63;1.35;;;21.20;99.90;;;;;;6297504;28;20041;-70
2022/07/04 09:26:46;;;;;;;6.07;1.42;;;21.20;99.90;;;;;;6296706;28;20059;-71
2022/07/04 09:29:54;;;;;;;4.70;1.00;;;21.00;99.90;;;;;;6297347;28;20041;-70
2022/07/04 09:33:00;;;;;;;6.55;1.65;;;21.00;99.90;;;;;;6296293;28;20044;-70
2022/07/04 09:36:12;;;;;;;11.38;2.35;;;21.20;99.90;;;;;;6295522;28;20115;-69
2022/07/04 09:39:17;;;;;;;6.35;1.52;;;20.80;99.90;;;;;;6296813;28;20052;-70
2022/07/04 09:42:20;;;;;;;4.55;1.95;;;20.20;99.90;;;;;;6295565;28;20048;-70
2022/07/04 09:45:24;;;;;;;3.85;1.33;;;20.20;99.90;;;;;;6294924;28;20064;-70
2022/07/04 09:48:26;;;;;;;3.42;0.95;;;19.80;99.90;;;;;;6296882;28;20048;-69
2022/07/04 09:51:42;;;;;;;6.10;1.35;;;19.40;99.90;;;;;;6294364;28;20138;-70
2022/07/04 09:54:49;;;;;;;4.53;1.77;;;19.10;99.90;;;;;;6271930;28;20041;-70
2022/07/04 09:57:51;;;;;;;3.67;1.25;;;18.80;99.90;;;;;;6271510;28;20596;-70
2022/07/04 10:01:00;;;;;;;3.47;1.60;;;19.00;99.90;;;;;;6273790;28;20052;-69
2022/07/04 10:04:03;;;;;;;5.13;1.67;;;19.40;99.90;;;;;;6295751;28;20509;-70
2022/07/04 10:07:05;;;;;;;3.05;1.15;;;19.70;99.90;;;;;;6295831;28;20041;-69
2022/07/04 10:10:31;;;;;;;2.20;1.10;;;20.00;99.90;;;;;;6296270;28;20044;-69
2022/07/04 10:13:33;;;;;;;4.60;1.20;;;20.50;99.90;;;;;;6295962;28;20051;-75
2022/07/04 10:16:37;;;;;;;4.47;1.25;;;20.60;99.90;;;;;;6296018;28;20040;-74
2022/07/04 10:19:39;;;;;;;8.23;1.73;;;20.60;99.90;;;;;;6293256;28;20390;-73
2022/07/04 10:22:41;;;;;;;5.72;1.52;;;20.40;99.90;;;;;;6293857;28;20044;-73
2022/07/04 10:25:46;;;;;;;5.83;1.57;;;20.10;99.90;;;;;;6291668;28;20056;-72
2022/07/04 10:28:49;;;;;;;5.90;1.45;;;20.00;99.90;;;;;;6270352;28;20481;-72
2022/07/04 10:31:53;;;;;;;3.28;1.20;;;20.00;99.90;;;;;;6300428;28;20056;-72
2022/07/04 10:34:55;;;;;;;5.53;1.70;;;20.00;99.90;;;;;;6294090;28;20132;-72
2022/07/04 10:38:02;;;;;;;1.92;1.27;;;19.90;99.90;;;;;;6293969;28;20508;-72
2022/07/04 10:41:06;;;;;;;3.55;1.40;;;20.00;99.90;;;;;;6295189;28;20064;-72
2022/07/04 10:44:13;;;;;;;2.88;1.30;;;20.30;99.90;;;;;;6292895;28;20600;-72
2022/07/04 10:47:27;;;;;;;3.03;1.25;;;20.70;99.90;;;;;;6292956;28;20048;-72
2022/07/04 10:50:29;;;;;;;3.33;1.10;;;21.20;99.90;;;;;;6295226;28;20045;-72
2022/07/04 10:53:33;;;;;;;3.77;1.40;;;21.30;99.90;;;;;;6297313;28;20049;-72
2022/07/04 10:56:53;;;;;;;2.55;1.10;;;21.40;99.90;;;;;;6294490;28;20048;-72
2022/07/04 11:00:07;;;;;;;2.78;1.02;;;21.40;99.90;;;;;;6296419;28;20041;-70
2022/07/04 11:03:19;;;;;;;4.40;1.20;;;21.40;99.90;;;;;;6283113;28;20243;-70
2022/07/04 11:06:54;;;;;;;3.33;1.00;;;21.60;99.90;;;;;;6296695;28;20142;-71
2022/07/04 11:10:25;;;;;;;4.05;0.98;;;21.80;99.90;;;;;;6297207;28;20477;-70
2022/07/04 11:13:27;;;;;;;3.22;1.30;;;22.10;99.90;;;;;;6276525;28;20052;-70
2022/07/04 11:16:52;;;;;;;1.95;1.00;;;22.10;99.90;;;;;;6297747;28;20051;-71
2022/07/04 11:20:00;;;;;;;1.95;0.90;;;22.00;99.90;;;;;;6297091;28;20056;-72
2022/07/04 11:23:05;;;;;;;2.58;1.08;;;22.10;99.90;;;;;;6297526;28;20044;-70
2022/07/04 11:26:07;;;;;;;1.90;0.90;;;22.20;99.90;;;;;;6298096;28;20064;-70
2022/07/04 11:29:12;;;;;;;2.40;0.90;;;22.10;99.90;;;;;;6297235;28;20052;-70
2022/07/04 11:32:14;;;;;;;3.65;0.90;;;22.10;99.90;;;;;;6297126;28;20496;-70
2022/07/04 11:35:22;;;;;;;2.72;1.10;;;22.20;99.90;;;;;;6299112;28;20047;-70
2022/07/04 11:38:24;;;;;;;2.95;0.90;;;22.40;99.90;;;;;;6298883;28;20056;-70
2022/07/04 11:48:21;;;;;;;2.50;1.10;;;22.90;99.90;;;;;;6291984;28;20053;-70
2022/07/04 11:51:25;;;;;;;2.33;0.80;;;22.70;99.90;;;;;;6298720;28;20053;-70
2022/07/04 11:54:27;;;;;;;3.05;0.95;;;22.60;99.90;;;;;;6299598;28;20101;-70
2022/07/04 11:57:31;;;;;;;1.95;1.00;;;22.70;99.90;;;;;;6295899;28;20041;-70
2022/07/04 12:00:34;;;;;;;3.20;0.90;;;22.80;99.90;;;;;;6297496;28;20127;-70
2022/07/04 12:03:37;;;;;;;3.80;1.00;;;22.90;99.90;;;;;;6298425;28;20489;-70
2022/07/04 12:06:40;;;;;;;1.58;0.93;;;22.90;99.90;;;;;;6297525;28;20040;-70
2022/07/04 12:09:43;;;;;;;2.10;1.10;;;22.80;99.90;;;;;;6294625;28;20044;-70
2022/07/04 12:12:53;;;;;;;1.42;0.80;;;22.90;99.90;;;;;;6298966;28;20048;-70
2022/07/04 12:15:56;;;;;;;1.10;0.73;;;22.90;99.90;;;;;;6298407;28;20044;-71
2022/07/04 12:19:08;;;;;;;2.75;1.00;;;23.00;99.90;;;;;;6295567;28;20409;-70
2022/07/04 12:22:12;;;;;;;4.00;1.08;;;23.10;99.90;;;;;;6289596;28;20106;-70
2022/07/04 12:25:25;;;;;;;2.63;0.90;;;23.10;99.90;;;;;;6296948;28;20501;-70
2022/07/04 12:28:36;;;;;;;2.20;1.00;;;23.20;99.90;;;;;;6296001;28;20135;-70
2022/07/04 12:31:41;;;;;;;4.70;0.90;;;23.30;99.90;;;;;;6297637;28;20044;-70
2022/07/04 12:34:43;;;;;;;2.15;0.80;;;23.30;99.90;;;;;;6295959;28;20433;-71
2022/07/04 12:38:01;;;;;;;2.83;0.90;;;23.40;99.90;;;;;;6294339;28;20165;-70
2022/07/04 12:41:05;;;;;;;2.90;1.02;;;23.50;99.90;;;;;;6295106;28;20044;-71
2022/07/04 12:44:08;;;;;;;2.45;0.70;;;23.60;99.80;;;;;;6288218;28;20187;-70
2022/07/04 12:47:10;;;;;;;3.05;0.80;;;23.50;99.80;;;;;;6326726;28;20060;-70
2022/07/04 12:50:12;;;;;;;2.95;0.85;;;23.50;99.30;;;;;;6283974;28;20037;-70
2022/07/04 12:53:16;;;;;;;2.25;0.77;;;23.50;99.90;;;;;;6290046;28;20059;-71
2022/07/04 12:56:31;;;;;;;;;;;23.50;97.90;;;;;;6287591;28;20040;-70
2022/07/04 12:59:33;;;;;;;2.25;0.70;;;23.40;99.90;;;;;;6297024;28;20037;-70
2022/07/04 13:02:35;;;;;;;2.53;0.77;;;23.40;99.40;;;;;;6295729;28;20181;-70
2022/07/04 13:05:38;;;;;;;3.03;0.80;;;23.40;99.90;;;;;;6295901;28;20048;-70
2022/07/04 13:08:41;;;;;;;1.40;0.65;;;23.30;99.30;;;;;;6293747;28;20041;-70
2022/07/04 13:15:05;;;;;;;2.05;0.70;;;23.30;99.30;;;;;;6295671;28;20165;-71
2022/07/04 13:18:07;;;;;;;3.17;0.75;;;23.40;99.90;;;;;;6292607;28;20520;-70
2022/07/04 13:21:09;;;;;;;3.30;0.88;;;23.60;99.30;;;;;;6291541;28;20048;-70
2022/07/04 13:24:13;;;;;;;2.25;0.70;;;23.60;99.10;;;;;;6292783;28;20074;-71
2022/07/04 13:27:16;;;;;;;3.05;0.60;;;23.70;97.90;;;;;;6290928;28;20044;-70
2022/07/04 13:30:18;;;;;;;2.65;0.80;;;23.80;97.80;;;;;;6292055;28;20045;-70
2022/07/04 13:33:20;;;;;;;3.65;0.90;;;23.60;97.70;;;;;;6294578;28;20056;-71
2022/07/04 13:36:22;;;;;;;2.80;0.60;;;23.60;97.80;;;;;;6296729;28;20488;-71
2022/07/04 13:39:25;;;;;;;3.13;0.68;;;23.50;98.40;;;;;;6295691;28;20142;-71
2022/07/04 13:45:48;;;;;;;1.85;0.60;;;23.60;98.00;;;;;;6295580;28;20049;-71
2022/07/04 13:48:50;;;;;;;1.60;0.60;;;23.70;97.60;;;;;;6294956;28;20097;-71
2022/07/04 13:51:52;;;;;;;3.22;0.70;;;23.60;97.60;;;;;;6295425;28;20037;-71
2022/07/04 13:54:56;;;;;;;3.13;0.80;;;23.60;97.90;;;;;;6295335;28;20055;-71
2022/07/04 13:57:58;;;;;;;3.70;0.80;;;23.50;97.30;;;;;;6295017;28;20044;-71
2022/07/04 14:01:00;;;;;;;1.60;0.70;;;23.40;96.10;;;;;;6286315;28;20560;-71
2022/07/04 14:04:02;;;;;;;2.30;0.60;;;23.30;97.80;;;;;;6293630;28;20063;-72
2022/07/04 14:07:04;;;;;;;2.15;0.80;;;23.50;98.10;;;;;;6291772;28;20572;-72
2022/07/04 14:10:08;;;;;;;2.67;0.60;;;23.60;97.30;;;;;;6301190;28;20047;-73
2022/07/04 14:13:10;;;;;;;2.28;0.70;;;23.60;97.60;;;;;;6304928;28;20044;-73
2022/07/04 14:16:12;;;;;;;1.48;0.77;;;23.70;97.30;;;;;;6295603;28;20045;-72
2022/07/04 14:19:14;;;;;;;2.03;0.77;;;23.60;96.70;;;;;;6295099;28;20048;-73
2022/07/04 14:22:16;;;;;;;2.13;0.70;;;23.50;97.00;;;;;;6293834;28;20267;-73
2022/07/04 14:25:19;;;;;;;3.25;0.75;;;23.70;97.30;;;;;;6292516;28;20067;-73
2022/07/04 14:28:21;;;;;;;2.38;0.60;;;23.80;97.60;;;;;;6301556;28;20048;-71
2022/07/04 14:31:23;;;;;;;1.52;0.70;;;23.70;97.10;;;;;;6300959;28;20270;-72
2022/07/04 14:34:25;;;;;;;1.17;0.60;;;23.60;97.90;;;;;;6303543;28;20056;-72
2022/07/04 14:37:28;;;;;;;2.90;0.85;;;23.60;98.00;;;;;;6302994;28;20052;-71
2022/07/04 14:40:31;;;;;;;2.53;0.57;;;23.70;97.90;;;;;;6302390;28;20117;-71
2022/07/04 14:43:33;;;;;;;3.22;0.70;;;23.80;97.90;;;;;;6302387;28;20840;-71
2022/07/04 14:46:35;;;;;;;1.88;0.77;;;23.90;97.10;;;;;;6303054;28;20406;-71
2022/07/04 14:49:37;;;;;;;2.53;0.70;;;23.90;96.90;;;;;;6296862;28;20053;-72
2022/07/04 14:52:39;;;;;;;2.40;0.70;;;24.00;96.10;;;;;;6286276;28;20397;-72
2022/07/04 14:55:42;;;;;;;2.72;1.00;;;24.00;96.30;;;;;;6302210;28;20052;-71
2022/07/04 14:58:44;;;;;;;2.92;0.80;;;23.70;95.50;;;;;;6301381;28;20045;-73
2022/07/04 15:01:46;;;;;;;3.30;0.73;;;23.60;95.60;;;;;;6302420;28;20405;-73
2022/07/04 15:04:48;;;;;;;2.63;0.93;;;23.30;95.90;;;;;;6301982;28;20540;-73
2022/07/04 15:07:49;;;;;;;4.70;1.00;;;23.10;96.30;;;;;;6301866;28;20536;-71
2022/07/04 15:10:53;;;;;;;2.80;0.90;;;22.80;95.10;;;;;;6302354;28;20051;-71
2022/07/04 15:13:55;;;;;;;3.53;0.98;;;22.60;96.50;;;;;;6301399;28;20493;-71
2022/07/04 15:16:57;;;;;;;1.65;0.60;;;22.60;96.40;;;;;;6302587;28;20074;-71
2022/07/04 15:26:39;;;;;;;2.35;0.47;;;22.60;97.20;;;;;;6302755;28;20053;-72
2022/07/04 15:29:41;;;;;;;1.38;0.60;;;22.60;96.80;;;;;;6303151;28;20048;-71
2022/07/04 15:32:43;;;;;;;4.00;1.20;;;22.80;96.90;;;;;;6300816;28;20049;-71
2022/07/04 15:35:46;;;;;;;0.80;0.40;;;22.80;95.70;;;;;;6301890;28;20056;-72
2022/07/04 15:38:47;;;;;;;1.58;0.70;;;22.60;95.90;;;;;;6299297;28;20059;-72
2022/07/04 15:41:51;;;;;;;2.90;0.50;;;22.50;97.00;;;;;;6297692;28;20482;-71
2022/07/04 15:44:53;;;;;;;2.60;0.68;;;22.50;96.80;;;;;;6297673;28;20056;-70
2022/07/04 15:47:56;;;;;;;4.20;0.80;;;22.40;96.10;;;;;;6298640;28;20090;-70
2022/07/04 15:50:57;;;;;;;3.03;0.70;;;22.30;96.10;;;;;;6297657;28;20055;-70
2022/07/04 15:53:59;;;;;;;2.03;0.70;;;22.20;97.00;;;;;;6297772;28;20048;-70
2022/07/04 15:57:04;;;;;;;1.95;0.68;;;22.20;96.40;;;;;;6298479;28;20067;-70
2022/07/04 16:00:07;;;;;;;2.28;0.45;;;22.10;96.40;;;;;;6296187;28;20060;-71
2022/07/04 16:03:10;;;;;;;3.08;0.50;;;22.20;96.80;;;;;;6298170;28;20076;-70
2022/07/04 16:06:12;;;;;;;2.15;0.50;;;22.30;96.70;;;;;;6295812;28;20558;-70
2022/07/04 16:09:14;;;;;;;0.93;0.50;;;22.30;97.00;;;;;;6293013;28;20048;-70
2022/07/04 16:12:17;;;;;;;0.98;0.30;;;22.10;96.80;;;;;;6297090;28;20530;-71
2022/07/04 16:15:19;;;;;;;1.42;0.50;;;22.10;97.10;;;;;;6293943;28;20056;-70
2022/07/04 16:18:21;;;;;;;4.20;1.35;;;22.20;96.50;;;;;;6289150;28;20473;-70
2022/07/04 16:21:23;;;;;;;4.30;2.03;;;22.10;96.10;;;;;;6296524;28;20512;-69
2022/07/04 16:24:25;;;;;;;2.20;0.88;;;22.10;96.80;;;;;;6287835;28;20072;-69